createdAt,value
2018-11-27T00:01:00.880Z,96343.06
2018-11-27T00:03:35.872Z,96338.84
2018-11-27T00:06:06.050Z,96330.34
2018-11-27T00:08:36.115Z,96341.34
2018-11-27T00:11:05.844Z,96343.84
2018-11-27T00:13:35.588Z,96339.66
2018-11-27T00:16:09.266Z,96345.47
2018-11-27T00:18:39.150Z,96341.72
2018-11-27T00:21:09.020Z,96347.97
2018-11-27T00:23:38.984Z,96354.66
2018-11-27T00:26:08.680Z,96354.70
2018-11-27T00:28:38.646Z,96363.50
2018-11-27T00:31:08.484Z,96367.25
2018-11-27T00:33:38.258Z,96360.56
2018-11-27T00:36:08.182Z,96365.56
2018-11-27T00:38:37.964Z,96361.34
2018-11-27T00:41:07.702Z,96363.06
2018-11-27T00:43:37.445Z,96364.75
2018-11-27T00:46:07.384Z,96369.75
2018-11-27T00:48:37.406Z,96373.97
2018-11-27T00:51:07.452Z,96374.74
2018-11-27T00:53:37.434Z,96378.97
2018-11-27T00:56:07.552Z,96378.16
2018-11-27T00:58:37.523Z,96384.40
2018-11-27T01:01:07.518Z,96385.65
2018-11-27T01:03:37.586Z,96383.15
2018-11-27T01:06:07.697Z,96392.37
2018-11-27T01:08:37.582Z,96392.37
2018-11-27T01:11:07.440Z,96394.40
2018-11-27T01:13:37.358Z,96398.14
2018-11-27T01:16:07.295Z,96400.21
2018-11-27T01:18:37.303Z,96406.41
2018-11-27T01:21:07.343Z,96405.55
2018-11-27T01:23:37.278Z,96413.05
2018-11-27T01:26:07.510Z,96415.98
2018-11-27T01:28:37.561Z,96410.55
2018-11-27T01:31:07.781Z,96419.73
2018-11-27T01:33:37.895Z,96416.41
2018-11-27T01:36:07.809Z,96423.44
2018-11-27T01:38:37.761Z,96418.39
2018-11-27T01:41:07.912Z,96421.74
2018-11-27T01:43:37.853Z,96425.55
2018-11-27T01:46:07.808Z,96419.64
2018-11-27T01:48:38.080Z,96422.86
2018-11-27T01:51:08.114Z,96427.03
2018-11-27T01:53:38.019Z,96420.31
2018-11-27T01:56:07.880Z,96423.72
2018-11-27T01:58:37.796Z,96419.53
2018-11-27T02:01:07.734Z,96419.92
2018-11-27T02:03:37.669Z,96422.81
2018-11-27T02:06:07.660Z,96429.97
2018-11-27T02:08:37.337Z,96426.22
2018-11-27T02:11:07.285Z,96430.45
2018-11-27T02:13:38.350Z,96426.22
2018-11-27T02:16:08.446Z,96426.22
2018-11-27T02:18:38.331Z,96429.97
2018-11-27T02:21:08.590Z,96425.45
2018-11-27T02:23:38.642Z,96427.95
2018-11-27T02:26:39.436Z,96426.70
2018-11-27T02:29:39.983Z,96430.45
2018-11-27T02:32:09.896Z,96432.95
2018-11-27T02:34:39.929Z,96427.95
2018-11-27T02:37:09.956Z,96429.97
2018-11-27T02:39:39.678Z,96435.78
2018-11-27T02:42:09.697Z,96435.36
2018-11-27T02:44:39.721Z,96434.53
2018-11-27T02:47:09.493Z,96439.53
2018-11-27T02:49:39.558Z,96437.81
2018-11-27T02:52:09.623Z,96435.31
2018-11-27T02:54:39.570Z,96439.53
2018-11-27T02:57:09.495Z,96444.05
2018-11-27T02:59:39.376Z,96441.98
2018-11-27T03:02:09.443Z,96443.67
2018-11-27T03:04:39.457Z,96447.80
2018-11-27T03:07:09.271Z,96448.28
2018-11-27T03:09:39.456Z,96451.16
2018-11-27T03:12:09.508Z,96453.27
2018-11-27T03:14:39.305Z,96452.02
2018-11-27T03:17:09.277Z,96459.96
2018-11-27T03:19:39.213Z,96460.77
2018-11-27T03:22:09.342Z,96460.77
2018-11-27T03:24:39.249Z,96461.97
2018-11-27T03:27:09.100Z,96464.52
2018-11-27T03:29:38.967Z,96466.89
2018-11-27T03:32:08.937Z,96471.89
2018-11-27T03:34:38.782Z,96476.11
2018-11-27T03:37:08.657Z,96479.86
2018-11-27T03:39:38.708Z,96479.47
2018-11-27T03:42:08.742Z,96485.29
2018-11-27T03:44:38.830Z,96486.54
2018-11-27T03:47:08.704Z,96489.52
2018-11-27T03:49:38.541Z,96492.02
2018-11-27T03:52:08.501Z,96485.77
2018-11-27T03:54:38.479Z,96487.45
2018-11-27T03:57:08.337Z,96493.70
2018-11-27T03:59:38.262Z,96493.70
2018-11-27T04:02:08.094Z,96498.70
2018-11-27T04:04:38.022Z,96494.56
2018-11-27T04:07:08.717Z,96497.02
2018-11-27T04:09:38.707Z,96497.02
2018-11-27T04:12:08.898Z,96498.70
2018-11-27T04:14:38.969Z,96498.65
2018-11-27T04:17:08.999Z,96497.79
2018-11-27T04:19:38.943Z,96503.59
2018-11-27T04:22:09.023Z,96501.95
2018-11-27T04:24:39.034Z,96508.59
2018-11-27T04:27:09.008Z,96514.45
2018-11-27T04:29:39.252Z,96510.75
2018-11-27T04:32:09.082Z,96508.70
2018-11-27T04:34:39.230Z,96512.92
2018-11-27T04:37:09.159Z,96514.95
2018-11-27T04:39:38.964Z,96513.70
2018-11-27T04:42:08.855Z,96512.78
2018-11-27T04:44:38.780Z,96519.94
2018-11-27T04:47:08.807Z,96523.75
2018-11-27T04:49:38.768Z,96521.19
2018-11-27T04:52:08.715Z,96527.44
2018-11-27T04:54:38.896Z,96524.50
2018-11-27T04:57:08.717Z,96532.83
2018-11-27T04:59:38.618Z,96537.77
2018-11-27T05:02:08.381Z,96539.83
2018-11-27T05:04:38.390Z,96536.95
2018-11-27T05:07:08.480Z,96534.25
2018-11-27T05:09:38.421Z,96547.77
2018-11-27T05:12:39.082Z,96546.52
2018-11-27T05:15:11.386Z,96552.33
2018-11-27T05:17:41.358Z,96559.02
2018-11-27T05:20:12.530Z,96564.44
2018-11-27T05:22:42.616Z,96581.07
2018-11-27T05:25:13.546Z,96566.85
2018-11-27T05:27:45.597Z,96573.47
2018-11-27T05:30:16.771Z,96578.46
2018-11-27T05:32:46.686Z,96575.10
2018-11-27T05:35:18.889Z,96581.80
2018-11-27T05:37:49.685Z,96586.41
2018-11-27T05:40:21.517Z,96583.46
2018-11-27T05:42:53.653Z,96585.96
2018-11-27T05:45:24.521Z,96584.34
2018-11-27T05:47:54.626Z,96590.15
2018-11-27T05:50:24.567Z,96598.09
2018-11-27T05:52:54.643Z,96600.15
2018-11-27T05:55:24.726Z,96605.95
2018-11-27T05:57:55.448Z,96603.45
2018-11-27T06:00:27.433Z,96606.73
2018-11-27T06:02:59.398Z,96610.09
2018-11-27T06:05:29.375Z,96615.95
2018-11-27T06:07:59.449Z,96618.36
2018-11-27T06:10:29.441Z,96616.72
2018-11-27T06:12:59.397Z,96620.09
2018-11-27T06:15:32.685Z,96619.28
2018-11-27T06:18:03.963Z,96624.22
2018-11-27T06:20:34.072Z,96633.44
2018-11-27T06:23:04.472Z,96631.61
2018-11-27T06:25:34.276Z,96640.94
2018-11-27T06:28:06.838Z,96648.44
2018-11-27T06:30:37.223Z,96650.46
2018-11-27T06:33:07.355Z,96651.66
2018-11-27T06:35:39.114Z,96658.77
2018-11-27T06:38:10.081Z,96655.02
2018-11-27T06:40:40.830Z,96667.95
2018-11-27T06:45:43.275Z,96671.70
2018-11-27T06:48:12.587Z,96670.01
2018-11-27T06:50:41.985Z,96666.59
2018-11-27T06:53:11.340Z,96676.64
2018-11-27T06:55:40.563Z,96682.51
2018-11-27T06:58:09.888Z,96685.78
2018-11-27T07:00:39.079Z,96686.70
2018-11-27T07:03:11.451Z,96695.83
2018-11-27T07:05:40.671Z,96691.81
2018-11-27T07:08:10.226Z,96700.23
2018-11-27T07:10:41.379Z,96706.95
2018-11-27T07:13:14.054Z,96707.72
2018-11-27T07:15:43.293Z,96712.72
2018-11-27T07:18:12.559Z,96718.58
2018-11-27T07:20:41.759Z,96731.52
2018-11-27T07:23:10.975Z,96730.36
2018-11-27T07:25:40.309Z,96731.14
2018-11-27T07:28:09.511Z,96740.80
2018-11-27T07:30:40.205Z,96731.25
2018-11-27T07:33:09.481Z,96739.67
2018-11-27T07:35:38.672Z,96744.67
2018-11-27T07:38:07.899Z,96748.09
2018-11-27T07:40:37.447Z,96746.52
2018-11-27T07:43:11.049Z,96754.48
2018-11-27T07:45:40.543Z,96761.63
2018-11-27T07:48:10.290Z,96763.35
2018-11-27T07:50:39.497Z,96764.27
2018-11-27T07:53:08.817Z,96767.75
2018-11-27T07:55:38.032Z,96766.08
2018-11-27T07:58:07.605Z,96770.96
2018-11-27T08:00:37.028Z,96777.80
2018-11-27T08:03:07.080Z,96774.50
2018-11-27T08:05:38.621Z,96775.36
2018-11-27T08:08:10.351Z,96777.20
2018-11-27T08:10:39.597Z,96782.26
2018-11-27T08:13:09.297Z,96783.18
2018-11-27T08:15:38.533Z,96784.10
2018-11-27T08:18:07.900Z,96785.80
2018-11-27T08:20:37.097Z,96781.71
2018-11-27T08:23:07.733Z,96791.83
2018-11-27T08:25:37.037Z,96787.75
2018-11-27T08:28:07.511Z,96791.22
2018-11-27T08:30:36.713Z,96797.53
2018-11-27T08:33:06.406Z,96798.92
2018-11-27T08:35:35.690Z,96799.16
2018-11-27T08:38:04.923Z,96800.60
2018-11-27T08:40:34.646Z,96804.52
2018-11-27T08:43:04.839Z,96810.45
2018-11-27T08:45:34.470Z,96814.78
2018-11-27T08:48:04.403Z,96816.48
2018-11-27T08:50:34.469Z,96825.82
2018-11-27T08:53:05.794Z,96828.10
2018-11-27T08:55:44.151Z,96828.69
2018-11-27T08:58:18.662Z,96832.22
2018-11-27T09:00:47.915Z,96843.25
2018-11-27T09:03:18.205Z,96838.84
2018-11-27T09:05:47.556Z,96840.78
2018-11-27T09:08:16.991Z,96842.61
2018-11-27T09:10:46.269Z,96846.48
2018-11-27T09:13:15.790Z,96851.63
2018-11-27T09:15:45.556Z,96852.64
2018-11-27T09:18:19.538Z,96852.47
2018-11-27T09:20:49.479Z,96853.44
2018-11-27T09:23:18.728Z,96863.94
2018-11-27T09:25:48.007Z,96866.44
2018-11-27T09:28:17.322Z,96870.02
2018-11-27T09:30:46.586Z,96870.65
2018-11-27T09:33:16.008Z,96877.35
2018-11-27T09:35:45.333Z,96873.36
2018-11-27T09:38:14.579Z,96876.34
2018-11-27T09:40:44.062Z,96879.42
2018-11-27T09:43:13.346Z,96872.41
2018-11-27T09:45:43.918Z,96877.18
2018-11-27T09:48:13.197Z,96879.40
2018-11-27T09:50:42.414Z,96879.97
2018-11-27T09:53:13.275Z,96885.56
2018-11-27T09:55:42.554Z,96886.58
2018-11-27T09:58:11.874Z,96887.39
2018-11-27T10:00:42.124Z,96890.34
2018-11-27T10:03:12.939Z,96894.20
2018-11-27T10:05:42.216Z,96890.23
2018-11-27T10:08:11.523Z,96893.86
2018-11-27T10:10:40.796Z,96897.42
2018-11-27T10:13:10.035Z,96895.35
2018-11-27T10:15:39.343Z,96891.59
2018-11-27T10:18:08.603Z,96896.50
2018-11-27T10:20:42.300Z,96897.66
2018-11-27T10:23:12.583Z,96891.20
2018-11-27T10:25:41.857Z,96903.11
2018-11-27T10:28:11.121Z,96904.94
2018-11-27T10:30:40.498Z,96906.19
2018-11-27T10:33:10.965Z,96908.41
2018-11-27T10:35:47.142Z,96914.25
2018-11-27T10:38:16.377Z,96910.73
2018-11-27T10:40:46.248Z,96915.80
2018-11-27T10:43:19.718Z,96919.06
2018-11-27T10:45:44.767Z,96923.97
2018-11-27T10:48:14.099Z,96917.34
2018-11-27T10:50:43.495Z,96914.00
2018-11-27T10:53:13.444Z,96918.25
2018-11-27T10:55:42.781Z,96915.20
2018-11-27T10:58:12.161Z,96921.47
2018-11-27T11:00:51.238Z,96925.33
2018-11-27T11:03:25.117Z,96932.52
2018-11-27T11:05:56.483Z,96925.44
2018-11-27T11:08:26.456Z,96928.17
2018-11-27T11:10:56.298Z,96933.29
2018-11-27T11:13:26.251Z,96930.92
2018-11-27T11:15:56.267Z,96936.71
2018-11-27T11:18:26.487Z,96939.56
2018-11-27T11:20:56.470Z,96938.64
2018-11-27T11:23:26.483Z,96934.97
2018-11-27T11:25:56.545Z,96934.10
2018-11-27T11:28:29.343Z,96937.39
2018-11-27T11:30:59.443Z,96939.89
2018-11-27T11:33:29.611Z,96943.21
2018-11-27T11:35:59.774Z,96943.89
2018-11-27T11:38:29.653Z,96948.95
2018-11-27T11:40:59.685Z,96942.53
2018-11-27T11:43:29.661Z,96944.93
2018-11-27T11:45:59.804Z,96949.02
2018-11-27T11:48:29.799Z,96943.82
2018-11-27T11:50:59.669Z,96944.23
2018-11-27T11:53:29.932Z,96951.81
2018-11-27T11:55:59.911Z,96950.84
2018-11-27T11:58:29.853Z,96955.44
2018-11-27T12:00:59.878Z,96954.47
2018-11-27T12:03:29.970Z,96954.47
2018-11-27T12:06:00.081Z,96954.19
2018-11-27T12:08:30.106Z,96956.33
2018-11-27T12:11:00.323Z,96962.59
2018-11-27T12:13:30.471Z,96960.03
2018-11-27T12:16:00.743Z,96957.19
2018-11-27T12:18:30.925Z,96955.94
2018-11-27T12:21:01.332Z,96958.00
2018-11-27T12:23:31.624Z,96970.75
2018-11-27T12:26:01.743Z,96966.19
2018-11-27T12:28:32.086Z,96974.14
2018-11-27T12:31:02.511Z,96974.70
2018-11-27T12:33:32.682Z,96977.68
2018-11-27T12:36:02.835Z,96979.48
2018-11-27T12:38:33.266Z,96979.81
2018-11-27T12:41:03.601Z,96975.25
2018-11-27T12:43:33.862Z,96979.92
2018-11-27T12:46:03.915Z,96988.25
2018-11-27T12:48:34.084Z,96975.58
2018-11-27T12:51:04.605Z,96986.52
2018-11-27T12:53:35.063Z,96984.88
2018-11-27T12:56:05.291Z,96988.25
2018-11-27T12:58:35.563Z,96989.72
2018-11-27T13:01:09.457Z,96992.67
2018-11-27T13:03:36.671Z,96995.51
2018-11-27T13:06:07.624Z,96995.39
2018-11-27T13:08:38.220Z,97000.25
2018-11-27T13:11:11.485Z,96999.37
2018-11-27T13:13:38.256Z,97003.45
2018-11-27T13:16:08.419Z,97007.16
2018-11-27T13:18:38.615Z,97007.88
2018-11-27T13:21:09.017Z,97008.20
2018-11-27T13:23:42.708Z,97011.36
2018-11-27T13:26:12.880Z,97018.55
2018-11-27T13:28:42.902Z,97018.22
2018-11-27T13:31:13.179Z,97016.96
2018-11-27T13:33:55.781Z,97018.60
2018-11-27T13:36:26.022Z,97025.94
2018-11-27T13:38:56.255Z,97030.47
2018-11-27T13:41:26.457Z,97035.03
2018-11-27T13:43:56.554Z,97038.78
2018-11-27T13:46:26.626Z,97043.79
2018-11-27T13:48:56.717Z,97041.28
2018-11-27T13:51:26.747Z,97036.61
2018-11-27T13:53:56.855Z,97039.11
2018-11-27T13:56:26.877Z,97041.61
2018-11-27T13:58:56.873Z,97043.19
2018-11-27T14:01:26.897Z,97049.78
2018-11-27T14:03:57.056Z,97047.27
2018-11-27T14:06:27.267Z,97054.46
2018-11-27T14:08:59.991Z,97053.20
2018-11-27T14:11:30.042Z,97053.69
2018-11-27T14:14:00.272Z,97056.19
2018-11-27T14:16:30.403Z,97053.27
2018-11-27T14:19:00.618Z,97064.14
2018-11-27T14:21:30.757Z,97060.27
2018-11-27T14:24:00.763Z,97060.92
2018-11-27T14:26:30.978Z,97067.92
2018-11-27T14:29:01.201Z,97075.28
2018-11-27T14:31:31.403Z,97070.66
2018-11-27T14:34:01.633Z,97080.02
2018-11-27T14:36:31.693Z,97087.53
2018-11-27T14:39:01.691Z,97097.55
2018-11-27T14:41:31.843Z,97094.92
2018-11-27T14:44:01.817Z,97094.11
2018-11-27T14:46:32.074Z,97089.86
2018-11-27T14:49:01.972Z,97100.85
2018-11-27T14:51:38.563Z,97099.98
2018-11-27T14:54:08.724Z,97102.55
2018-11-27T14:56:39.121Z,97088.98
2018-11-27T14:59:09.065Z,97106.78
2018-11-27T15:01:39.201Z,97114.30
2018-11-27T15:04:09.225Z,97111.80
2018-11-27T15:06:39.444Z,97118.38
2018-11-27T15:09:10.912Z,97124.31
2018-11-27T15:11:41.064Z,97126.01
2018-11-27T15:14:11.511Z,97125.56
2018-11-27T15:16:41.685Z,97131.34
2018-11-27T15:19:11.870Z,97128.00
2018-11-27T15:21:42.158Z,97134.16
2018-11-27T15:24:12.447Z,97134.16
2018-11-27T15:26:42.390Z,97141.67
2018-11-27T15:29:12.599Z,97146.23
2018-11-27T15:31:42.744Z,97150.76
2018-11-27T15:34:12.963Z,97157.50
2018-11-27T15:36:43.352Z,97155.31
2018-11-27T15:39:13.650Z,97156.13
2018-11-27T15:41:44.084Z,97164.72
2018-11-27T15:44:14.543Z,97163.02
2018-11-27T15:46:44.838Z,97166.45
2018-11-27T15:49:14.959Z,97169.89
2018-11-27T15:51:45.127Z,97168.16
2018-11-27T15:54:15.300Z,97175.66
2018-11-27T15:56:45.602Z,97183.98
2018-11-27T15:59:15.631Z,97176.91
2018-11-27T16:01:46.853Z,97188.05
2018-11-27T16:04:17.020Z,97184.69
2018-11-27T16:06:47.037Z,97182.98
2018-11-27T16:09:17.250Z,97188.37
2018-11-27T16:11:47.247Z,97191.20
2018-11-27T16:14:17.286Z,97190.27
2018-11-27T16:16:47.844Z,97186.77
2018-11-27T16:19:17.809Z,97198.58
2018-11-27T16:21:47.956Z,97194.34
2018-11-27T16:24:20.326Z,97192.64
2018-11-27T16:26:50.477Z,97200.21
2018-11-27T16:29:20.733Z,97200.27
2018-11-27T16:31:51.909Z,97203.97
2018-11-27T16:34:22.058Z,97206.85
2018-11-27T16:36:52.249Z,97217.98
2018-11-27T16:39:22.223Z,97215.80
2018-11-27T16:41:52.489Z,97219.11
2018-11-27T16:44:22.771Z,97220.67
2018-11-27T16:46:52.923Z,97220.19
2018-11-27T16:49:23.065Z,97232.70
2018-11-27T16:51:53.193Z,97236.45
2018-11-27T16:54:23.464Z,97241.55
2018-11-27T16:56:53.471Z,97240.55
2018-11-27T16:59:54.439Z,97238.83
2018-11-27T17:02:25.239Z,97237.89
2018-11-27T17:04:55.400Z,97227.69
2018-11-27T17:07:25.623Z,97241.37
2018-11-27T17:09:55.654Z,97241.96
2018-11-27T17:12:25.971Z,97244.47
2018-11-27T17:14:56.099Z,97250.41
2018-11-27T17:17:26.703Z,97248.06
2018-11-27T17:19:56.934Z,97250.56
2018-11-27T17:22:27.129Z,97258.97
2018-11-27T17:24:57.095Z,97252.27
2018-11-27T17:27:27.375Z,97251.47
2018-11-27T17:29:57.537Z,97253.20
2018-11-27T17:32:27.657Z,97254.14
2018-11-27T17:34:57.621Z,97251.70
2018-11-27T17:37:27.948Z,97251.31
2018-11-27T17:39:58.385Z,97247.56
2018-11-27T17:42:28.595Z,97252.56
2018-11-27T17:44:58.924Z,97252.56
2018-11-27T17:47:28.963Z,97258.47
2018-11-27T17:49:59.283Z,97258.02
2018-11-27T17:52:29.127Z,97257.64
2018-11-27T17:54:59.279Z,97259.72
2018-11-27T17:57:29.511Z,97274.28
2018-11-27T17:59:59.731Z,97280.09
2018-11-27T18:02:29.969Z,97280.09
2018-11-27T18:05:14.739Z,97288.05
2018-11-27T18:07:44.877Z,97286.19
2018-11-27T18:10:14.955Z,97290.73
2018-11-27T18:12:45.236Z,97292.75
2018-11-27T18:15:18.275Z,97294.80
2018-11-27T18:17:48.529Z,97296.51
2018-11-27T18:20:18.681Z,97298.69
2018-11-27T18:22:48.940Z,97303.25
2018-11-27T18:25:20.288Z,97299.01
2018-11-27T18:27:51.219Z,97303.11
2018-11-27T18:30:23.119Z,97304.36
2018-11-27T18:32:53.509Z,97305.68
2018-11-27T18:35:24.993Z,97314.50
2018-11-27T18:37:55.344Z,97313.25
2018-11-27T18:40:25.730Z,97321.39
2018-11-27T18:42:56.029Z,97320.14
2018-11-27T18:45:28.722Z,97319.52
2018-11-27T18:47:59.063Z,97318.39
2018-11-27T18:50:30.888Z,97318.95
2018-11-27T18:53:01.134Z,97312.63
2018-11-27T18:55:32.508Z,97324.13
2018-11-27T18:58:03.055Z,97324.03
2018-11-27T19:00:40.512Z,97328.27
2018-11-27T19:03:13.081Z,97331.70
2018-11-27T19:05:43.330Z,97324.34
2018-11-27T19:08:13.799Z,97326.04
2018-11-27T19:10:45.257Z,97327.70
2018-11-27T19:13:18.052Z,97341.05
2018-11-27T19:15:49.582Z,97345.22
2018-11-27T19:18:23.174Z,97344.36
2018-11-27T19:20:53.435Z,97348.56
2018-11-27T19:23:24.922Z,97357.32
2018-11-27T19:25:55.175Z,97351.86
2018-11-27T19:28:25.332Z,97352.31
2018-11-27T19:30:55.353Z,97357.80
2018-11-27T19:33:25.454Z,97353.56
2018-11-27T19:35:55.668Z,97354.44
2018-11-27T19:38:25.689Z,97354.44
2018-11-27T19:40:55.870Z,97351.55
2018-11-27T19:43:25.919Z,97357.01
2018-11-27T19:45:55.997Z,97363.68
2018-11-27T19:48:26.000Z,97362.33
2018-11-27T19:50:57.007Z,97361.08
2018-11-27T19:53:27.358Z,97363.58
2018-11-27T20:28:51.571Z,97393.95
2018-11-27T20:31:20.960Z,97398.96
2018-11-27T20:33:50.326Z,97395.66
2018-11-27T20:36:19.783Z,97389.27
2018-11-27T20:38:49.071Z,97394.48
2018-11-27T20:41:18.470Z,97394.41
2018-11-27T20:43:47.918Z,97391.77
2018-11-27T20:46:17.232Z,97402.09
2018-11-27T20:48:46.545Z,97402.54
2018-11-27T20:51:16.261Z,97402.40
2018-11-27T20:53:45.678Z,97414.45
2018-11-27T20:56:15.017Z,97417.41
2018-11-27T20:58:44.376Z,97417.41
2018-11-27T21:01:13.720Z,97425.37
2018-11-27T21:03:43.059Z,97422.03
2018-11-27T21:06:13.287Z,97423.22
2018-11-27T21:08:42.676Z,97423.36
2018-11-27T21:11:12.040Z,97427.56
2018-11-27T21:13:41.465Z,97429.61
2018-11-27T21:16:11.306Z,97431.17
2018-11-27T21:18:41.566Z,97431.73
2018-11-27T21:21:11.870Z,97428.36
2018-11-27T21:23:41.297Z,97435.38
2018-11-27T21:26:12.311Z,97429.12
2018-11-27T21:28:41.975Z,97434.13
2018-11-27T21:31:11.500Z,97430.94
2018-11-27T21:33:42.131Z,97433.51
2018-11-27T21:36:11.480Z,97433.51
2018-11-27T21:38:41.516Z,97434.76
2018-11-27T21:41:12.233Z,97439.31
2018-11-27T21:43:41.603Z,97438.52
2018-11-27T21:46:11.658Z,97435.87
2018-11-27T21:48:41.603Z,97440.25
2018-11-27T21:51:11.709Z,97449.46
2018-11-27T21:53:41.704Z,97441.02
2018-11-27T21:56:11.733Z,97450.57
2018-11-27T21:58:41.622Z,97450.81
2018-11-27T22:01:12.345Z,97442.75
2018-11-27T22:03:42.529Z,97452.59
2018-11-27T22:06:12.430Z,97455.89
2018-11-27T22:08:48.420Z,97461.66
2018-11-27T22:11:18.532Z,97455.89
2018-11-27T22:13:48.377Z,97457.66
2018-11-27T22:16:18.384Z,97454.02
2018-11-27T22:18:48.373Z,97458.22
2018-11-27T22:21:18.279Z,97459.47
2018-11-27T22:23:48.204Z,97458.67
2018-11-27T22:26:18.120Z,97461.97
2018-11-27T22:28:48.031Z,97462.84
2018-11-27T22:31:18.111Z,97471.19
2018-11-27T22:33:47.909Z,97468.69
2018-11-27T22:36:17.888Z,97472.44
2018-11-27T22:38:47.907Z,97472.13
2018-11-27T22:41:17.688Z,97470.87
2018-11-27T22:43:47.465Z,97469.63
2018-11-27T22:46:17.453Z,97463.85
2018-11-27T22:48:48.325Z,97459.61
2018-11-27T22:51:18.274Z,97462.77
2018-11-27T22:53:48.283Z,97461.03
2018-11-27T22:56:18.077Z,97463.84
2018-11-27T22:58:47.853Z,97470.90
2018-11-27T23:01:17.749Z,97469.16
2018-11-27T23:03:47.661Z,97469.02
2018-11-27T23:06:17.728Z,97475.77
2018-11-27T23:08:47.597Z,97467.00
2018-11-27T23:11:17.429Z,97467.45
2018-11-27T23:13:47.646Z,97462.93
2018-11-27T23:16:21.453Z,97479.83
2018-11-27T23:18:51.452Z,97481.39
2018-11-27T23:21:21.985Z,97488.09
2018-11-27T23:23:52.012Z,97483.09
2018-11-27T23:26:21.905Z,97490.22
2018-11-27T23:28:51.818Z,97493.17
2018-11-27T23:31:21.959Z,97488.52
2018-11-27T23:33:52.059Z,97483.89
2018-11-27T23:36:21.973Z,97483.89
2018-11-27T23:38:51.911Z,97478.09
2018-11-27T23:41:21.809Z,97470.51
2018-11-27T23:43:52.047Z,97461.98
2018-11-27T23:46:21.945Z,97470.36
2018-11-27T23:48:52.164Z,97463.55
2018-11-27T23:51:22.500Z,97465.19
2018-11-27T23:53:52.296Z,97463.55
2018-11-27T23:56:22.210Z,97467.79
2018-11-27T23:58:52.232Z,97462.78
